LFTW 210400Z AUTO 34015KT 310V010 CAVOK 04/M06 Q1022 BECMG 35020G35KT

ElémentsDécodage
LFTW Station météo située sur l'aérodrome de NIMES Garons
210400Z émis le 21 du mois à 04h00 UTC
AUTO Bulletin édité par un automate
34015KT vent du 340°, 15 noeuds
310V010 vent de direction variable entre 310° et 010°
CAVOK Ceiling And Visibility OK
- Visibilité de 10 Km ou plus
- Pas de nuage au-dessous de 1500m ou au-dessous de l'altitude minimale du secteur la plus élevée (si>1500m) et absence de CB
- pas de temps présent significatif
04/M06 température 04°C, point de rosée -06°C
 soit une humidité relative de 48%
Q1022 la pression au niveau de la mer (QNH) est de 1022 hPa
BECMG fluctuation du temps prévue
35020G35KT vent du 350°, moyenne: 20 noeuds, avec rafales à 35 noeuds